Time;durP1;ratioP1;P1;durP2;ratioP2;P2;SDS_P1;SDS_P2;PMS_P1;PMS_P2;Temp;Humidity;BMP_temperature;BMP_pressure;BME280_temperature;BME280_humidity;BME280_pressure;Samples;Min_cycle;Max_cycle;Signal;HPM_P1;HPM_P2
2023/12/23 00:01:51;;;;;;;4.78;0.50;;;;;;;9.46;71.73;99833.00;4994960;28;20057;-51
2023/12/23 00:04:19;;;;;;;1.50;0.73;;;;;;;9.46;72.49;99825.25;4976503;28;20507;-47
2023/12/23 00:06:46;;;;;;;2.22;1.02;;;;;;;9.44;72.21;99821.81;4975567;28;20050;-46
2023/12/23 00:09:15;;;;;;;4.45;1.00;;;;;;;9.45;72.28;99815.78;4977409;28;20923;-45
2023/12/23 00:11:42;;;;;;;3.67;1.13;;;;;;;9.47;72.05;99819.25;4977569;28;20050;-47
2023/12/23 00:14:09;;;;;;;1.55;0.63;;;;;;;9.44;72.83;99816.66;4977727;28;20065;-48
2023/12/23 00:16:36;;;;;;;0.90;0.85;;;;;;;9.35;72.27;99821.81;4979240;28;20072;-46
2023/12/23 00:19:03;;;;;;;5.32;0.63;;;;;;;9.37;72.83;99838.19;4977528;28;20054;-51
2023/12/23 00:21:30;;;;;;;2.78;0.82;;;;;;;9.40;72.44;99825.28;4978150;28;20094;-45
2023/12/23 00:23:58;;;;;;;0.63;0.47;;;;;;;9.32;72.66;99816.69;5003116;28;20054;-49
2023/12/23 00:26:25;;;;;;;1.63;0.63;;;;;;;9.36;72.71;99828.72;5003430;28;20042;-50
2023/12/23 00:28:52;;;;;;;4.72;2.05;;;;;;;9.43;71.94;99821.81;4994490;28;20049;-49
2023/12/23 00:31:19;;;;;;;3.28;0.47;;;;;;;9.42;72.90;99823.53;4979989;28;20050;-42
2023/12/23 00:33:47;;;;;;;2.90;2.05;;;;;;;9.43;72.67;99819.25;4981138;28;20412;-40
2023/12/23 00:36:14;;;;;;;3.50;1.63;;;;;;;9.46;72.58;99809.75;4980049;28;20404;-47
2023/12/23 00:38:41;;;;;;;2.05;0.43;;;;;;;9.33;73.12;99800.31;4980428;28;20050;-48
2023/12/23 00:41:09;;;;;;;3.20;0.60;;;;;;;9.39;73.00;99788.22;4980010;28;20062;-50
2023/12/23 00:43:37;;;;;;;1.80;0.70;;;;;;;9.41;72.98;99795.09;4978449;28;20046;-50
2023/12/23 00:46:07;;;;;;;1.50;0.40;;;;;;;9.33;73.41;99789.97;4980784;28;20057;-53
2023/12/23 00:48:34;;;;;;;2.25;0.70;;;;;;;9.40;72.99;99791.66;4977623;28;20054;-55
2023/12/23 00:51:01;;;;;;;5.72;1.17;;;;;;;9.41;73.29;99795.97;4979994;28;20047;-49
2023/12/23 00:53:28;;;;;;;4.85;0.57;;;;;;;9.41;73.40;99787.34;4978188;28;20070;-43
2023/12/23 00:55:54;;;;;;;4.10;0.80;;;;;;;9.37;73.71;99774.44;4979971;28;20407;-45
2023/12/23 00:58:21;;;;;;;2.58;0.63;;;;;;;9.32;73.56;99765.00;4971349;28;20054;-51
2023/12/23 01:00:48;;;;;;;5.13;0.80;;;;;;;9.39;73.62;99771.84;4987546;28;20050;-47
2023/12/23 01:03:15;;;;;;;2.47;0.52;;;;;;;9.39;73.96;99758.91;4990303;28;20117;-43
2023/12/23 01:05:42;;;;;;;4.07;0.70;;;;;;;9.41;73.60;99752.03;5004782;28;20050;-50
2023/12/23 01:08:09;;;;;;;0.75;0.50;;;;;;;9.37;74.11;99747.72;4983332;28;20050;-49
2023/12/23 01:10:36;;;;;;;3.05;1.15;;;;;;;9.36;74.19;99743.44;4983877;28;20575;-51
2023/12/23 01:13:03;;;;;;;4.00;1.55;;;;;;;9.38;73.82;99728.75;4978875;28;20460;-41
2023/12/23 01:15:29;;;;;;;1.40;0.50;;;;;;;9.38;74.78;99718.44;4982649;28;20108;-43
2023/12/23 01:17:56;;;;;;;2.75;0.70;;;;;;;9.33;74.86;99715.00;4987796;28;20050;-45
2023/12/23 01:20:25;;;;;;;1.15;0.77;;;;;;;9.28;75.14;99724.50;4996960;28;20152;-51
2023/12/23 01:22:51;;;;;;;4.25;0.60;;;;;;;9.31;74.96;99721.88;4995746;28;20046;-50
2023/12/23 01:25:18;;;;;;;7.10;0.95;;;;;;;9.29;75.00;99718.47;4992976;28;20049;-50
2023/12/23 01:27:44;;;;;;;1.48;0.65;;;;;;;9.24;75.38;99716.75;5008036;28;20080;-49
2023/12/23 01:30:13;;;;;;;0.50;0.40;;;;;;;9.19;75.41;99718.47;5003981;28;20065;-45
2023/12/23 01:32:40;;;;;;;0.93;0.60;;;;;;;9.21;75.20;99708.13;4990300;28;20078;-44
2023/12/23 01:35:07;;;;;;;1.88;0.50;;;;;;;9.22;75.37;99702.97;4982138;28;20054;-43
2023/12/23 01:37:34;;;;;;;2.78;1.63;;;;;;;9.17;76.04;99694.38;4982282;28;20380;-47
2023/12/23 01:40:00;;;;;;;1.38;0.50;;;;;;;9.24;75.35;99700.38;4981943;28;20116;-52
2023/12/23 01:42:27;;;;;;;1.08;0.95;;;;;;;9.18;75.25;99697.84;4981816;28;20074;-45
2023/12/23 01:44:54;;;;;;;0.60;0.60;;;;;;;9.15;74.96;99684.91;4982099;28;20043;-48
2023/12/23 01:47:22;;;;;;;3.10;0.57;;;;;;;9.05;76.23;99709.91;4982404;28;20047;-50
2023/12/23 01:49:50;;;;;;;2.85;0.90;;;;;;;9.08;76.17;99712.47;4981751;28;20081;-42
2023/12/23 01:52:17;;;;;;;2.45;0.70;;;;;;;8.99;76.45;99703.88;4980579;28;20065;-53
2023/12/23 01:54:44;;;;;;;4.70;0.90;;;;;;;9.02;76.34;99709.91;4982021;28;20085;-46
2023/12/23 01:57:12;;;;;;;1.02;0.60;;;;;;;9.03;76.28;99703.88;4989046;28;20068;-41
2023/12/23 01:59:39;;;;;;;1.30;0.63;;;;;;;8.99;76.32;99711.63;4979378;28;20050;-47
2023/12/23 02:02:07;;;;;;;1.50;0.70;;;;;;;8.85;77.27;99709.06;4980027;28;20054;-44
2023/12/23 02:04:34;;;;;;;1.67;0.77;;;;;;;8.85;77.55;99721.13;4980559;28;20499;-44
2023/12/23 02:07:01;;;;;;;2.05;0.90;;;;;;;8.82;77.65;99687.56;4987396;28;20049;-42
2023/12/23 02:09:29;;;;;;;2.80;0.95;;;;;;;8.80;77.82;99699.59;4981077;28;20054;-54
2023/12/23 02:17:20;;;;;;;4.03;0.50;;;;;;;8.80;78.23;99699.59;5078638;27;20883;-48
2023/12/23 02:19:47;;;;;;;4.03;0.40;;;;;;;8.76;78.29;99688.44;5077218;28;20137;-48
2023/12/23 02:22:15;;;;;;;3.17;0.57;;;;;;;8.84;78.00;99684.09;5077887;28;20048;-49
2023/12/23 02:24:42;;;;;;;2.05;0.80;;;;;;;8.73;78.81;99678.97;5078754;28;20053;-43
2023/12/23 02:27:13;;;;;;;2.72;0.55;;;;;;;8.84;78.22;99670.31;5073329;28;20492;-52
2023/12/23 02:29:43;;;;;;;1.35;0.80;;;;;;;8.82;78.54;99682.41;5076074;28;20044;-44
2023/12/23 02:32:12;;;;;;;1.05;0.40;;;;;;;8.83;79.04;99673.78;5075139;28;20059;-53
2023/12/23 02:34:41;;;;;;;2.80;0.40;;;;;;;8.79;78.71;99672.06;5075879;28;20057;-47
2023/12/23 02:37:07;;;;;;;2.50;0.63;;;;;;;8.87;78.65;99697.03;5075800;28;20048;-50
2023/12/23 02:39:34;;;;;;;0.88;0.80;;;;;;;8.89;78.55;99702.19;5075574;28;20049;-47
2023/12/23 02:42:01;;;;;;;5.55;2.10;;;;;;;8.90;77.91;99701.31;5077129;28;20040;-43
2023/12/23 02:44:28;;;;;;;3.33;1.35;;;;;;;8.89;78.45;99678.94;5076305;28;20451;-50
2023/12/23 02:46:54;;;;;;;2.35;0.50;;;;;;;8.97;77.78;99687.53;5074879;28;20040;-50
2023/12/23 02:49:21;;;;;;;0.45;0.45;;;;;;;8.91;78.38;99676.38;5076045;28;20056;-47
2023/12/23 02:51:47;;;;;;;1.45;0.50;;;;;;;8.96;77.99;99679.78;5073477;28;20379;-45
2023/12/23 02:54:14;;;;;;;1.17;0.43;;;;;;;8.96;77.55;99685.81;5077391;28;20048;-47
2023/12/23 02:56:41;;;;;;;2.20;0.75;;;;;;;8.93;78.01;99672.91;5075269;28;20040;-40
2023/12/23 02:59:07;;;;;;;1.35;0.60;;;;;;;8.93;77.90;99675.50;5074052;28;20051;-48
2023/12/23 03:01:34;;;;;;;1.90;1.80;;;;;;;8.99;77.97;99685.78;5080120;28;20049;-46
2023/12/23 03:04:01;;;;;;;2.60;2.22;;;;;;;9.02;77.48;99699.56;5069888;28;20098;-51
2023/12/23 03:06:27;;;;;;;0.93;0.45;;;;;;;8.99;77.68;99703.03;5087142;28;20163;-47
2023/12/23 03:08:56;;;;;;;1.95;0.40;;;;;;;8.97;77.71;99695.28;5081848;28;20045;-43
2023/12/23 03:11:22;;;;;;;1.15;0.40;;;;;;;9.05;77.15;99700.41;5083827;28;20421;-52
2023/12/23 03:13:50;;;;;;;1.77;0.70;;;;;;;9.05;77.67;99710.75;5084135;28;20048;-46
2023/12/23 03:16:18;;;;;;;4.25;0.60;;;;;;;9.12;77.07;99698.72;5077124;28;20063;-45
2023/12/23 03:18:46;;;;;;;0.82;0.60;;;;;;;9.10;76.98;99687.50;5072748;28;20048;-46
2023/12/23 03:21:13;;;;;;;3.25;0.50;;;;;;;9.20;76.98;99691.78;5075958;28;20121;-46
2023/12/23 03:23:39;;;;;;;3.08;0.90;;;;;;;9.20;77.23;99671.13;5077584;28;20339;-45
2023/12/23 03:26:07;;;;;;;1.92;0.45;;;;;;;9.20;76.48;99684.03;5076096;28;20046;-49
2023/12/23 03:28:34;;;;;;;2.42;0.40;;;;;;;9.14;77.23;99686.63;5061979;28;20056;-55
2023/12/23 03:31:01;;;;;;;4.10;0.40;;;;;;;9.17;76.96;99691.78;5059024;28;20140;-46
2023/12/23 03:33:27;;;;;;;1.02;0.80;;;;;;;9.19;77.19;99690.03;5060311;28;20056;-47
2023/12/23 03:35:58;;;;;;;1.83;0.57;;;;;;;9.15;77.49;99685.75;5066040;28;20065;-51
2023/12/23 03:38:24;;;;;;;3.47;0.82;;;;;;;9.21;77.55;99682.28;5062077;28;20072;-48
2023/12/23 03:40:51;;;;;;;1.05;0.70;;;;;;;9.18;77.41;99670.25;5060840;28;20056;-47
2023/12/23 03:43:18;;;;;;;1.88;0.63;;;;;;;9.14;77.97;99658.19;5059822;28;20052;-52
2023/12/23 03:45:46;;;;;;;2.05;1.65;;;;;;;9.17;77.59;99668.53;5060409;28;20060;-51
2023/12/23 03:48:13;;;;;;;0.60;0.60;;;;;;;9.15;77.97;99674.59;5060615;28;20055;-50
2023/12/23 03:50:40;;;;;;;1.05;0.65;;;;;;;9.07;77.97;99661.66;5060494;28;20202;-46
2023/12/23 03:53:07;;;;;;;1.90;1.80;;;;;;;9.17;78.16;99668.53;5060542;28;20071;-47
2023/12/23 03:55:33;;;;;;;1.98;0.52;;;;;;;9.09;77.54;99665.13;5060885;28;20109;-51
2023/12/23 03:58:02;;;;;;;2.67;2.58;;;;;;;9.11;78.00;99666.84;5061329;28;20049;-45
2023/12/23 04:00:30;;;;;;;2.20;0.63;;;;;;;9.07;78.33;99678.03;5063298;28;20083;-52
2023/12/23 04:02:57;;;;;;;0.75;0.40;;;;;;;9.10;77.93;99661.66;5058906;28;20045;-49
2023/12/23 04:05:24;;;;;;;2.47;0.40;;;;;;;9.04;78.54;99653.91;5059943;28;20063;-44
2023/12/23 04:07:51;;;;;;;0.50;0.45;;;;;;;9.00;78.68;99646.19;5061135;28;20102;-44
2023/12/23 04:10:18;;;;;;;1.15;0.63;;;;;;;9.06;78.25;99649.63;5059811;28;20052;-48
2023/12/23 04:12:44;;;;;;;2.55;1.83;;;;;;;9.06;78.50;99658.25;5062638;28;20044;-48
2023/12/23 04:15:11;;;;;;;1.23;0.47;;;;;;;9.12;78.16;99655.63;5063292;28;20044;-47
2023/12/23 04:17:39;;;;;;;2.42;1.30;;;;;;;9.06;78.62;99647.03;5058028;28;20390;-49
2023/12/23 04:20:07;;;;;;;0.93;0.47;;;;;;;9.15;78.19;99654.75;5071696;28;20386;-44
2023/12/23 04:22:34;;;;;;;3.83;0.57;;;;;;;9.09;78.35;99649.63;5061929;28;20067;-46
2023/12/23 04:25:01;;;;;;;1.60;0.45;;;;;;;9.08;78.21;99642.72;5066735;28;20048;-47
2023/12/23 04:27:27;;;;;;;1.13;0.40;;;;;;;9.07;78.33;99636.69;5066826;28;20049;-47
2023/12/23 04:29:54;;;;;;;2.08;0.60;;;;;;;9.10;78.38;99635.81;5066478;28;20048;-44
2023/12/23 04:32:21;;;;;;;0.47;0.38;;;;;;;9.09;78.18;99649.63;5064165;28;20044;-48
2023/12/23 04:34:47;;;;;;;4.43;1.88;;;;;;;9.11;78.09;99635.81;5065673;28;20049;-41
2023/12/23 04:37:14;;;;;;;1.23;0.32;;;;;;;9.12;77.87;99649.63;5070198;28;20493;-47
2023/12/23 04:39:41;;;;;;;1.23;0.50;;;;;;;9.10;78.01;99635.81;5059118;28;20053;-47
2023/12/23 04:42:07;;;;;;;3.35;2.28;;;;;;;9.02;78.94;99640.16;5063914;28;20044;-52
2023/12/23 04:44:35;;;;;;;1.42;0.68;;;;;;;9.08;78.34;99655.63;5060811;28;20049;-47
2023/12/23 04:47:02;;;;;;;1.23;0.73;;;;;;;9.08;78.66;99640.13;5060824;28;20045;-48
2023/12/23 04:49:29;;;;;;;1.85;0.45;;;;;;;9.11;78.59;99642.72;5060054;28;20068;-44
2023/12/23 04:51:55;;;;;;;0.85;0.30;;;;;;;9.09;79.32;99657.38;5060218;28;20052;-49
2023/12/23 04:54:22;;;;;;;1.13;1.02;;;;;;;9.02;79.38;99653.06;5059808;28;20052;-47
2023/12/23 04:56:49;;;;;;;1.98;1.88;;;;;;;9.05;78.80;99659.09;5058960;28;20056;-53
2023/12/23 04:59:15;;;;;;;1.95;1.85;;;;;;;9.09;78.81;99670.28;5063802;28;20044;-50
2023/12/23 05:01:43;;;;;;;0.98;0.45;;;;;;;9.14;78.92;99663.38;5067138;28;20139;-50
2023/12/23 05:04:10;;;;;;;1.38;0.40;;;;;;;9.14;78.87;99668.53;5069256;28;20056;-45
2023/12/23 05:06:37;;;;;;;3.25;2.70;;;;;;;9.21;78.68;99665.06;5066817;28;20052;-48
2023/12/23 05:09:05;;;;;;;1.70;0.55;;;;;;;9.25;78.51;99669.38;5072291;28;20694;-47
2023/12/23 05:11:32;;;;;;;0.70;0.60;;;;;;;9.21;79.09;99636.66;5069053;28;20574;-47
2023/12/23 05:13:59;;;;;;;0.30;0.30;;;;;;;9.27;78.75;99682.28;5072954;28;20051;-47
2023/12/23 05:16:25;;;;;;;1.58;0.47;;;;;;;9.30;79.07;99665.91;5059632;28;20051;-47
2023/12/23 05:18:52;;;;;;;0.50;0.50;;;;;;;9.26;79.24;99678.81;5060623;28;20048;-53
2023/12/23 05:21:19;;;;;;;1.50;0.40;;;;;;;9.32;79.07;99683.13;5062246;28;20090;-48
2023/12/23 05:23:49;;;;;;;0.40;0.30;;;;;;;9.34;78.30;99675.38;5055500;28;20047;-44
2023/12/23 05:26:21;;;;;;;0.30;0.30;;;;;;;9.32;78.35;99669.34;5060408;28;20068;-48
2023/12/23 05:28:48;;;;;;;0.40;0.20;;;;;;;9.31;78.20;99670.19;5058230;28;20045;-46
2023/12/23 05:31:18;;;;;;;2.60;2.50;;;;;;;9.25;77.98;99659.03;5058961;28;20076;-48
2023/12/23 05:33:46;;;;;;;2.40;2.20;;;;;;;9.29;77.64;99671.94;5059636;28;20048;-47
2023/12/23 05:36:13;;;;;;;0.38;0.38;;;;;;;9.32;77.49;99666.78;5060787;28;20049;-49
2023/12/23 05:38:40;;;;;;;1.20;0.63;;;;;;;9.39;77.19;99660.69;5060291;28;20048;-47
2023/12/23 05:41:08;;;;;;;0.40;0.30;;;;;;;9.33;76.70;99658.16;5059827;28;20051;-54
2023/12/23 05:43:35;;;;;;;0.88;0.30;;;;;;;9.39;76.83;99652.94;5060766;28;20127;-48
2023/12/23 05:46:02;;;;;;;1.35;0.32;;;;;;;9.42;76.29;99662.44;5059942;28;20056;-47
2023/12/23 05:48:28;;;;;;;3.17;0.60;;;;;;;9.42;76.07;99658.09;5060378;28;20635;-53
2023/12/23 05:50:55;;;;;;;0.82;0.30;;;;;;;9.45;76.43;99654.63;5056211;28;20171;-53
2023/12/23 05:53:23;;;;;;;2.05;0.60;;;;;;;9.45;76.13;99650.34;5059073;28;20117;-44
2023/12/23 05:55:50;;;;;;;0.47;0.43;;;;;;;9.37;76.50;99655.56;5059579;28;20048;-44
2023/12/23 05:58:17;;;;;;;0.77;0.30;;;;;;;9.34;76.62;99654.69;5061143;28;20077;-47
2023/12/23 06:00:43;;;;;;;0.50;0.30;;;;;;;9.30;76.39;99643.50;5053855;28;20060;-44
2023/12/23 06:03:11;;;;;;;0.55;0.43;;;;;;;9.35;76.92;99639.19;5058954;28;20057;-53
2023/12/23 06:05:38;;;;;;;1.27;0.60;;;;;;;9.37;76.74;99619.38;5058367;28;20044;-44
2023/12/23 06:08:05;;;;;;;0.22;0.20;;;;;;;9.34;76.37;99618.50;5059875;28;20047;-45
2023/12/23 06:10:32;;;;;;;1.70;1.58;;;;;;;9.33;76.54;99621.97;5059892;28;20045;-50
2023/12/23 06:13:13;;;;;;;2.05;0.63;;;;;;;9.30;76.55;99632.31;5062238;28;20110;-47
2023/12/23 06:15:39;;;;;;;0.70;0.50;;;;;;;9.29;76.59;99625.44;5056070;28;20055;-52
2023/12/23 06:18:06;;;;;;;2.08;1.88;;;;;;;9.32;76.45;99622.84;5058420;28;20045;-50
2023/12/23 06:20:33;;;;;;;2.35;0.38;;;;;;;9.29;76.34;99646.09;5057383;28;20118;-44
2023/12/23 06:23:00;;;;;;;1.90;0.68;;;;;;;9.27;75.88;99653.84;5066666;28;20174;-48
2023/12/23 06:25:29;;;;;;;1.05;0.20;;;;;;;9.22;76.38;99651.28;5059977;28;20052;-50
2023/12/23 06:27:56;;;;;;;2.78;0.38;;;;;;;9.20;77.09;99642.69;5071243;28;20032;-46
2023/12/23 06:30:22;;;;;;;0.70;0.38;;;;;;;9.18;77.17;99654.75;5061658;28;20047;-49
2023/12/23 06:32:50;;;;;;;0.52;0.52;;;;;;;9.18;77.28;99656.50;5059360;28;20055;-47
2023/12/23 06:35:18;;;;;;;2.72;0.60;;;;;;;9.15;77.09;99666.81;5058804;28;20049;-50
2023/12/23 06:37:45;;;;;;;4.18;0.57;;;;;;;9.17;76.83;99653.03;5055451;28;20041;-46
2023/12/23 06:40:12;;;;;;;3.30;0.82;;;;;;;9.09;77.57;99660.78;5067412;28;20409;-52
2023/12/23 06:42:38;;;;;;;3.67;0.30;;;;;;;9.12;77.21;99649.63;5060034;28;20052;-48
2023/12/23 06:45:07;;;;;;;0.75;0.30;;;;;;;9.10;76.78;99641.00;5060240;28;20052;-49
2023/12/23 06:47:34;;;;;;;1.67;0.40;;;;;;;9.05;77.03;99633.25;5060179;28;20040;-48
2023/12/23 06:50:02;;;;;;;1.15;0.75;;;;;;;9.05;76.65;99637.56;5059274;28;20041;-50
2023/12/23 06:52:29;;;;;;;0.52;0.25;;;;;;;9.03;76.44;99628.97;5057687;28;20060;-48
2023/12/23 06:54:56;;;;;;;0.70;0.45;;;;;;;9.10;75.97;99635.81;5058160;28;20044;-51
2023/12/23 06:57:22;;;;;;;1.17;0.22;;;;;;;9.07;76.07;99630.66;5057745;28;20490;-51
2023/12/23 06:59:49;;;;;;;0.22;0.22;;;;;;;9.08;75.98;99647.88;5057940;28;20111;-45
2023/12/23 07:02:16;;;;;;;2.35;2.10;;;;;;;9.05;76.07;99640.16;5060383;28;20086;-50
2023/12/23 07:04:43;;;;;;;2.85;0.40;;;;;;;9.03;75.88;99649.63;5059897;28;20149;-47
2023/12/23 07:07:10;;;;;;;3.28;1.48;;;;;;;9.06;75.70;99654.78;5069121;28;20485;-47
2023/12/23 07:09:40;;;;;;;6.85;2.55;;;;;;;8.96;75.80;99660.00;5061940;28;20053;-44
2023/12/23 07:12:09;;;;;;;9.95;4.22;;;;;;;8.98;75.89;99647.91;5065739;28;20942;-49
2023/12/23 07:14:36;;;;;;;12.20;4.07;;;;;;;8.95;75.23;99645.34;5060443;28;20056;-48
2023/12/23 07:17:03;;;;;;;4.82;3.75;;;;;;;9.00;75.81;99643.63;5061795;28;20045;-50
2023/12/23 07:19:30;;;;;;;3.83;1.90;;;;;;;9.05;75.33;99647.91;5061174;28;20052;-43
2023/12/23 07:21:57;;;;;;;1.15;0.70;;;;;;;9.04;75.46;99649.63;5060810;28;21346;-51
2023/12/23 07:24:23;;;;;;;4.22;1.42;;;;;;;9.04;74.64;99653.91;5071744;28;20040;-45
2023/12/23 07:26:50;;;;;;;4.70;2.38;;;;;;;9.07;75.38;99659.09;5062176;28;20051;-45
2023/12/23 07:29:17;;;;;;;1.98;1.48;;;;;;;9.13;75.39;99652.16;5061672;28;20052;-44
2023/12/23 07:31:43;;;;;;;4.65;2.92;;;;;;;9.12;75.13;99634.13;5058782;28;20052;-47
2023/12/23 07:34:10;;;;;;;3.63;1.13;;;;;;;9.04;75.00;99635.84;5061263;28;21752;-46
2023/12/23 07:36:38;;;;;;;5.95;1.70;;;;;;;9.03;75.35;99628.97;5062809;28;20106;-49
2023/12/23 07:39:05;;;;;;;11.80;4.72;;;;;;;9.05;74.64;99642.75;5059649;28;20052;-43
2023/12/23 07:41:33;;;;;;;4.22;1.95;;;;;;;9.07;74.87;99633.25;5059041;28;20048;-52
2023/12/23 07:44:01;;;;;;;3.08;1.52;;;;;;;9.05;74.44;99637.56;5059013;28;20497;-51
2023/12/23 07:46:28;;;;;;;5.55;3.22;;;;;;;8.99;74.69;99622.97;5056509;28;20085;-49
2023/12/23 07:48:55;;;;;;;5.68;2.28;;;;;;;9.06;74.80;99628.94;5061558;28;20052;-51
2023/12/23 07:51:21;;;;;;;1.65;1.33;;;;;;;8.97;74.56;99622.97;5061301;28;20052;-46
2023/12/23 07:53:48;;;;;;;3.53;3.17;;;;;;;8.93;74.67;99625.53;5063652;28;20048;-46
2023/12/23 07:56:15;;;;;;;2.97;1.15;;;;;;;8.93;74.40;99629.00;5063034;28;20071;-44
2023/12/23 07:58:42;;;;;;;2.45;1.23;;;;;;;8.92;74.54;99629.84;5058351;28;20071;-44
2023/12/23 08:01:08;;;;;;;2.72;1.20;;;;;;;9.01;74.22;99626.38;5060263;28;20044;-51
2023/12/23 08:03:36;;;;;;;3.67;1.77;;;;;;;8.98;74.64;99637.59;5060008;28;20060;-47
2023/12/23 08:06:03;;;;;;;3.60;1.13;;;;;;;8.98;74.64;99639.28;5061038;28;20036;-45
2023/12/23 08:08:29;;;;;;;5.20;2.22;;;;;;;9.00;75.13;99650.50;5061582;28;20045;-45
2023/12/23 08:10:57;;;;;;;2.75;1.27;;;;;;;8.97;74.78;99656.53;5054312;28;20097;-44
2023/12/23 08:13:24;;;;;;;2.72;2.53;;;;;;;9.00;74.94;99661.69;5063517;28;20232;-53
2023/12/23 08:15:50;;;;;;;3.22;1.25;;;;;;;8.99;75.09;99653.94;5060956;28;20063;-44
2023/12/23 08:18:19;;;;;;;2.00;1.00;;;;;;;8.95;75.49;99658.25;5061719;28;20047;-48
2023/12/23 08:20:46;;;;;;;2.63;0.68;;;;;;;9.03;75.13;99657.38;5058841;28;20057;-47
2023/12/23 08:23:13;;;;;;;1.75;1.10;;;;;;;8.96;75.21;99662.56;5065265;28;20413;-48
2023/12/23 08:25:40;;;;;;;3.75;3.47;;;;;;;9.02;75.31;99676.31;5064145;28;20052;-44
2023/12/23 08:28:07;;;;;;;1.45;0.77;;;;;;;9.04;75.21;99666.84;5071695;28;20044;-48
2023/12/23 08:30:33;;;;;;;5.10;1.27;;;;;;;9.03;75.02;99672.88;5067384;28;20405;-52
2023/12/23 08:33:00;;;;;;;2.58;0.90;;;;;;;9.02;75.27;99673.75;5062140;28;20139;-49
2023/12/23 08:35:27;;;;;;;3.97;2.80;;;;;;;9.01;75.46;99662.53;5056990;28;20048;-46
2023/12/23 08:37:54;;;;;;;2.88;2.67;;;;;;;9.06;75.57;99654.78;5066740;28;20044;-49
2023/12/23 08:40:22;;;;;;;3.05;2.80;;;;;;;9.09;75.40;99649.63;5067485;28;20513;-47
2023/12/23 08:42:49;;;;;;;5.45;3.40;;;;;;;9.10;75.30;99656.50;5067725;28;20048;-49
2023/12/23 08:45:17;;;;;;;1.40;0.73;;;;;;;9.18;75.61;99659.06;5063949;28;20041;-50
2023/12/23 08:47:44;;;;;;;5.88;1.92;;;;;;;9.25;74.91;99666.78;5065651;28;20043;-49
2023/12/23 08:50:10;;;;;;;4.78;1.48;;;;;;;9.37;74.35;99677.94;5063706;28;20071;-47
2023/12/23 08:52:37;;;;;;;2.85;1.27;;;;;;;9.34;75.15;99672.78;5067335;28;20048;-48
2023/12/23 08:55:04;;;;;;;4.25;2.88;;;;;;;9.44;74.58;99681.34;5063659;28;20044;-51
2023/12/23 08:57:31;;;;;;;3.25;1.25;;;;;;;9.44;74.03;99687.41;5062498;28;20044;-49
2023/12/23 08:59:57;;;;;;;2.58;1.63;;;;;;;9.48;74.22;99683.94;5067427;28;20064;-46
2023/12/23 09:02:24;;;;;;;3.13;0.85;;;;;;;9.48;73.77;99694.28;5063961;28;20063;-54
2023/12/23 09:04:54;;;;;;;2.67;1.23;;;;;;;9.54;74.59;99695.09;5063845;28;20052;-47
2023/12/23 09:07:21;;;;;;;11.18;2.42;;;;;;;9.66;73.47;99697.63;5067237;28;20044;-50
2023/12/23 09:09:49;;;;;;;2.60;0.93;;;;;;;9.69;73.06;99692.44;5059384;28;20102;-48
2023/12/23 09:12:19;;;;;;;4.63;1.25;;;;;;;9.76;73.17;99688.97;5066117;28;20053;-49
2023/12/23 09:14:51;;;;;;;3.67;1.30;;;;;;;9.80;73.01;99704.47;5064300;28;20135;-44
2023/12/23 09:17:18;;;;;;;6.78;3.60;;;;;;;9.94;73.25;99692.34;5064842;28;20064;-53
2023/12/23 09:19:45;;;;;;;3.42;1.25;;;;;;;10.13;73.30;99705.13;5063157;28;20135;-52
2023/12/23 09:22:11;;;;;;;9.48;2.53;;;;;;;10.36;71.91;99709.28;5067008;28;20454;-50
2023/12/23 09:24:41;;;;;;;2.97;1.15;;;;;;;10.50;71.80;99704.91;5060563;28;20396;-51
2023/12/23 09:27:08;;;;;;;6.28;2.70;;;;;;;10.59;72.13;99706.56;5063795;28;20040;-47
2023/12/23 09:29:34;;;;;;;4.10;1.52;;;;;;;10.66;71.19;99707.38;5070204;28;20055;-48
2023/12/23 09:32:04;;;;;;;4.07;1.42;;;;;;;10.69;71.11;99709.94;5063635;28;20048;-51
2023/12/23 09:34:31;;;;;;;7.03;1.90;;;;;;;10.88;71.88;99712.38;5065948;28;20070;-44
2023/12/23 09:36:58;;;;;;;2.00;0.52;;;;;;;10.99;70.44;99715.72;5064371;28;20063;-46
2023/12/23 09:39:24;;;;;;;4.63;1.52;;;;;;;11.14;69.89;99725.06;5062480;28;20059;-48
2023/12/23 09:41:54;;;;;;;4.45;1.70;;;;;;;11.49;70.00;99730.75;5064825;28;20040;-46
2023/12/23 09:44:21;;;;;;;6.00;3.70;;;;;;;11.79;70.25;99728.63;5066705;28;20747;-50
2023/12/23 09:46:49;;;;;;;4.30;2.03;;;;;;;12.12;69.15;99722.19;5064933;28;20127;-49
2023/12/23 09:49:18;;;;;;;4.55;1.58;;;;;;;12.28;67.18;99721.09;5062380;28;20040;-45
2023/12/23 09:51:45;;;;;;;3.78;1.10;;;;;;;12.46;67.24;99719.06;5065779;28;20067;-44
2023/12/23 09:54:19;;;;;;;4.68;1.33;;;;;;;12.65;66.95;99727.44;5068537;28;20056;-46
2023/12/23 09:56:48;;;;;;;4.68;2.40;;;;;;;12.67;67.10;99730.03;5060060;28;20071;-46
2023/12/23 09:59:15;;;;;;;2.15;1.00;;;;;;;12.71;66.02;99729.09;5061179;28;20059;-49
2023/12/23 10:01:42;;;;;;;3.97;2.30;;;;;;;12.71;65.54;99713.50;5066373;28;20398;-43
2023/12/23 10:04:09;;;;;;;2.33;1.27;;;;;;;12.73;65.42;99722.09;5070635;28;20049;-43
2023/12/23 10:06:36;;;;;;;3.50;1.45;;;;;;;12.80;65.57;99728.91;5057962;28;20055;-45
2023/12/23 10:09:03;;;;;;;3.50;0.90;;;;;;;12.94;65.60;99731.28;5053845;28;20048;-47
2023/12/23 10:11:30;;;;;;;3.22;1.50;;;;;;;13.06;65.30;99724.13;5067970;28;20044;-51
2023/12/23 10:13:56;;;;;;;3.38;1.13;;;;;;;13.18;64.84;99718.72;5063285;28;20135;-47
2023/12/23 10:16:24;;;;;;;2.90;0.98;;;;;;;13.16;63.83;99730.03;5064433;28;20048;-47
2023/12/23 10:18:50;;;;;;;1.50;0.90;;;;;;;13.02;64.48;99728.53;5058526;28;20546;-47
2023/12/23 10:21:19;;;;;;;2.40;0.90;;;;;;;12.80;63.60;99738.47;5060663;28;20080;-52
2023/12/23 10:23:46;;;;;;;3.95;1.55;;;;;;;12.85;64.22;99737.50;5060831;28;20041;-43
2023/12/23 10:26:15;;;;;;;2.13;0.80;;;;;;;12.67;64.78;99733.44;5062660;28;20057;-51
2023/12/23 10:28:43;;;;;;;2.60;0.85;;;;;;;12.49;64.28;99737.22;5061033;28;20048;-44
2023/12/23 10:31:17;;;;;;;5.45;2.10;;;;;;;12.34;63.95;99735.72;5060275;28;20452;-53
2023/12/23 10:33:50;;;;;;;2.15;0.57;;;;;;;12.24;64.83;99745.38;5066918;28;20548;-50
2023/12/23 10:36:19;;;;;;;2.45;0.85;;;;;;;12.18;65.57;99745.47;5065979;28;20052;-48
2023/12/23 10:38:53;;;;;;;1.73;0.73;;;;;;;12.25;64.79;99752.28;5063255;28;20490;-50
2023/12/23 10:41:36;;;;;;;3.42;0.90;;;;;;;12.06;64.88;99742.16;5069332;28;20048;-51
2023/12/23 10:44:05;;;;;;;1.98;0.70;;;;;;;12.02;65.42;99755.19;5069784;28;20045;-45
2023/12/23 10:46:33;;;;;;;2.88;0.43;;;;;;;11.89;65.97;99749.28;5063509;28;20509;-54
2023/12/23 10:49:02;;;;;;;1.50;1.00;;;;;;;11.78;66.47;99747.69;5064227;28;20067;-48
2023/12/23 10:51:30;;;;;;;2.35;0.32;;;;;;;11.81;66.81;99754.56;5072597;28;20052;-48
2023/12/23 10:53:59;;;;;;;3.83;0.45;;;;;;;11.72;65.93;99737.38;5067208;28;20049;-47
2023/12/23 10:56:27;;;;;;;1.13;0.57;;;;;;;11.73;66.15;99738.25;5061034;28;20057;-49
2023/12/23 10:58:55;;;;;;;2.08;0.50;;;;;;;11.70;66.11;99736.56;5063599;28;20101;-53
2023/12/23 11:01:27;;;;;;;1.05;0.50;;;;;;;11.60;66.33;99727.16;5054997;28;20041;-47
2023/12/23 11:04:00;;;;;;;1.30;0.65;;;;;;;11.68;66.91;99735.69;5058365;28;20102;-47
2023/12/23 11:06:30;;;;;;;3.10;0.63;;;;;;;11.66;66.94;99727.09;5064309;28;20055;-50
2023/12/23 11:08:59;;;;;;;3.53;0.60;;;;;;;11.52;67.57;99709.94;5060786;28;20037;-48
2023/12/23 11:11:29;;;;;;;1.60;0.50;;;;;;;11.55;66.85;99712.50;5063964;28;20067;-49
2023/12/23 11:13:57;;;;;;;0.88;0.73;;;;;;;11.52;67.62;99709.94;5068970;28;20040;-44
2023/12/23 11:16:24;;;;;;;1.92;0.68;;;;;;;11.56;67.50;99713.38;5066006;28;20049;-47
2023/12/23 11:18:52;;;;;;;1.55;0.40;;;;;;;11.61;66.89;99713.31;5072427;28;20485;-47
2023/12/23 11:21:19;;;;;;;1.73;0.52;;;;;;;11.71;68.21;99709.72;5062668;28;20060;-45
2023/12/23 11:23:47;;;;;;;1.20;0.50;;;;;;;11.71;67.29;99691.56;5071024;28;20048;-49
2023/12/23 11:29:14;;;;;;;1.15;1.05;;;;;;;11.87;67.20;99694.81;5030123;27;20409;-47
2023/12/23 11:31:41;;;;;;;0.93;0.63;;;;;;;11.94;67.36;99699.03;5020425;28;20056;-48
2023/12/23 11:34:13;;;;;;;1.25;1.10;;;;;;;11.91;66.86;99703.41;5017165;28;20049;-44
2023/12/23 11:36:43;;;;;;;2.45;0.88;;;;;;;11.91;67.73;99708.59;5017449;28;20065;-46
2023/12/23 11:39:12;;;;;;;0.45;0.43;;;;;;;11.88;67.14;99700.84;5021060;28;20049;-47
2023/12/23 11:41:41;;;;;;;1.15;1.00;;;;;;;11.90;66.68;99704.28;5022698;28;20045;-49
2023/12/23 11:44:10;;;;;;;1.75;0.47;;;;;;;11.93;67.51;99707.69;5016962;28;20156;-47
2023/12/23 11:46:39;;;;;;;0.65;0.65;;;;;;;11.93;67.39;99704.25;5022119;28;20069;-46
2023/12/23 11:49:09;;;;;;;1.15;1.02;;;;;;;11.97;66.34;99705.94;5022409;28;20068;-48